createdAt,value
2022-10-26T00:01:08.156Z,99.50
2022-10-26T00:03:37.865Z,99.50
2022-10-26T00:06:07.924Z,99.60
2022-10-26T00:08:36.282Z,99.70
2022-10-26T00:11:05.029Z,99.80
2022-10-26T00:13:33.198Z,99.70
2022-10-26T00:16:01.843Z,99.70
2022-10-26T00:18:31.336Z,99.80
2022-10-26T00:21:04.445Z,99.80
2022-10-26T00:23:32.535Z,99.80
2022-10-26T00:26:00.801Z,99.80
2022-10-26T00:28:29.486Z,99.80
2022-10-26T00:31:03.618Z,99.80
2022-10-26T00:33:33.473Z,99.80
2022-10-26T00:36:01.739Z,99.70
2022-10-26T00:38:29.798Z,99.70
2022-10-26T00:43:39.237Z,99.70
2022-10-26T00:46:12.715Z,99.80
2022-10-26T00:48:45.534Z,99.80
2022-10-26T00:51:19.998Z,99.80
2022-10-26T00:53:48.768Z,99.80
2022-10-26T00:56:17.361Z,99.80
2022-10-26T00:58:46.146Z,99.80
2022-10-26T01:01:14.468Z,99.80
2022-10-26T01:03:44.743Z,99.90
2022-10-26T01:06:14.613Z,99.80
2022-10-26T01:08:44.327Z,99.90
2022-10-26T01:11:13.379Z,99.90
2022-10-26T01:13:45.190Z,99.90
2022-10-26T01:16:39.476Z,99.90
2022-10-26T01:19:38.870Z,99.90
2022-10-26T01:22:09.425Z,99.90
2022-10-26T01:24:51.879Z,99.90
2022-10-26T01:27:30.457Z,99.80
2022-10-26T01:30:21.235Z,99.80
2022-10-26T01:32:58.635Z,99.70
2022-10-26T01:35:31.509Z,99.70
2022-10-26T01:38:05.948Z,99.80
2022-10-26T01:40:39.718Z,99.80
2022-10-26T01:43:12.280Z,99.80
2022-10-26T01:45:45.698Z,99.80
2022-10-26T01:48:17.617Z,99.80
2022-10-26T01:50:48.487Z,99.70
2022-10-26T01:53:17.197Z,99.60
2022-10-26T01:55:48.947Z,99.60
2022-10-26T01:58:52.903Z,99.50
2022-10-26T02:01:38.536Z,99.40
2022-10-26T02:04:16.206Z,99.40
2022-10-26T02:06:52.977Z,99.40
2022-10-26T02:09:28.914Z,99.40
2022-10-26T02:11:57.774Z,99.30
2022-10-26T02:14:35.185Z,99.40
2022-10-26T02:17:09.200Z,99.40
2022-10-26T02:19:44.376Z,99.50
2022-10-26T02:22:19.382Z,99.60
2022-10-26T02:24:50.446Z,99.70
2022-10-26T02:27:22.711Z,99.70
2022-10-26T02:29:52.907Z,99.60
2022-10-26T02:32:25.978Z,99.60
2022-10-26T02:34:57.755Z,99.70
2022-10-26T02:37:28.037Z,99.70
2022-10-26T02:39:58.969Z,99.70
2022-10-26T02:42:28.906Z,99.70
2022-10-26T02:45:02.207Z,99.70
2022-10-26T02:47:31.771Z,99.60
2022-10-26T02:50:00.205Z,99.50
2022-10-26T02:52:37.062Z,99.50
2022-10-26T02:55:11.961Z,99.40
2022-10-26T02:57:42.978Z,99.50
2022-10-26T03:00:13.326Z,99.50
2022-10-26T03:02:47.576Z,99.60
2022-10-26T03:05:21.829Z,99.60
2022-10-26T03:07:49.940Z,99.40
2022-10-26T03:10:18.191Z,99.40
2022-10-26T03:12:46.508Z,99.40
2022-10-26T03:15:15.423Z,99.50
2022-10-26T03:17:45.034Z,99.60
2022-10-26T03:20:14.094Z,99.60
2022-10-26T03:22:42.289Z,99.60
2022-10-26T03:25:10.585Z,99.60
2022-10-26T03:27:39.007Z,99.60
2022-10-26T03:30:08.298Z,99.70
2022-10-26T03:32:36.532Z,99.60
2022-10-26T03:35:06.472Z,99.60
2022-10-26T03:37:35.088Z,99.60
2022-10-26T03:40:03.052Z,99.50
2022-10-26T03:42:35.264Z,99.60
2022-10-26T03:45:03.381Z,99.50
2022-10-26T03:47:32.588Z,99.60
2022-10-26T03:50:00.771Z,99.30
2022-10-26T03:52:30.307Z,99.30
2022-10-26T03:54:58.394Z,99.30
2022-10-26T03:57:27.454Z,99.30
2022-10-26T03:59:55.489Z,99.50
2022-10-26T04:02:23.551Z,99.50
2022-10-26T04:04:51.687Z,99.50
2022-10-26T04:07:19.699Z,99.50
2022-10-26T04:09:49.054Z,99.60
2022-10-26T04:12:17.098Z,99.60
2022-10-26T04:14:45.115Z,99.60
2022-10-26T04:17:13.166Z,99.60
2022-10-26T04:19:41.196Z,99.60
2022-10-26T04:22:09.351Z,99.60
2022-10-26T04:24:37.508Z,99.60
2022-10-26T04:27:06.999Z,99.60
2022-10-26T04:29:35.021Z,99.40
2022-10-26T04:32:04.893Z,99.30
2022-10-26T04:34:32.926Z,99.20
2022-10-26T04:37:01.022Z,99.30
2022-10-26T04:39:29.214Z,99.30
2022-10-26T04:41:57.258Z,99.30
2022-10-26T04:44:26.649Z,99.30
2022-10-26T04:46:54.871Z,99.30
2022-10-26T04:49:22.864Z,99.30
2022-10-26T04:51:51.009Z,99.40
2022-10-26T04:54:19.049Z,99.30
2022-10-26T04:59:20.442Z,99.40
2022-10-26T05:01:49.904Z,99.40
2022-10-26T05:04:18.104Z,99.40
2022-10-26T05:06:46.105Z,99.40
2022-10-26T05:09:14.148Z,99.40
2022-10-26T05:11:42.165Z,99.50
2022-10-26T05:14:10.708Z,99.50
2022-10-26T05:16:38.810Z,99.50
2022-10-26T05:19:08.282Z,99.50
2022-10-26T05:21:36.444Z,99.50
2022-10-26T05:24:07.615Z,99.60
2022-10-26T05:26:38.247Z,99.50
2022-10-26T05:29:06.423Z,99.50
2022-10-26T05:32:06.865Z,99.60
2022-10-26T05:34:38.293Z,99.60
2022-10-26T05:37:08.976Z,99.80
2022-10-26T05:39:37.014Z,99.80
2022-10-26T05:42:05.060Z,99.80
2022-10-26T05:44:33.113Z,99.80
2022-10-26T05:47:01.131Z,99.80
2022-10-26T05:49:29.135Z,99.80
2022-10-26T05:51:59.777Z,99.80
2022-10-26T05:54:27.833Z,99.80
2022-10-26T05:56:56.444Z,99.60
2022-10-26T05:59:25.073Z,99.70
2022-10-26T06:02:02.809Z,99.70
2022-10-26T06:04:37.915Z,99.70
2022-10-26T06:07:12.742Z,99.80
2022-10-26T06:09:42.051Z,99.80
2022-10-26T06:12:13.473Z,99.80
2022-10-26T06:14:44.828Z,99.80
2022-10-26T06:17:42.835Z,99.90
2022-10-26T06:20:22.323Z,99.90
2022-10-26T06:23:01.904Z,99.90
2022-10-26T06:25:39.345Z,99.90
2022-10-26T06:28:22.645Z,99.80
2022-10-26T06:30:50.974Z,99.80
2022-10-26T06:33:29.030Z,99.80
2022-10-26T06:36:09.530Z,99.80
2022-10-26T06:38:41.370Z,99.80
2022-10-26T06:41:10.466Z,99.70
2022-10-26T06:43:39.060Z,99.70
2022-10-26T06:46:15.914Z,99.70
2022-10-26T06:48:52.945Z,99.60
2022-10-26T06:51:21.527Z,99.50
2022-10-26T06:53:58.246Z,99.50
2022-10-26T06:56:27.234Z,99.50
2022-10-26T06:58:58.336Z,99.50
2022-10-26T07:01:26.468Z,99.40
2022-10-26T07:03:54.488Z,99.70
2022-10-26T07:06:22.514Z,99.40
2022-10-26T07:08:52.032Z,99.40
2022-10-26T07:11:20.095Z,99.50
2022-10-26T07:13:51.873Z,99.40
2022-10-26T07:16:21.118Z,99.00
2022-10-26T07:18:49.132Z,99.10
2022-10-26T07:21:17.231Z,99.20
2022-10-26T07:23:45.269Z,99.40
2022-10-26T07:26:14.635Z,99.40
2022-10-26T07:28:42.632Z,99.40
2022-10-26T07:31:10.767Z,99.40
2022-10-26T07:33:41.486Z,99.40
2022-10-26T07:36:10.909Z,99.50
2022-10-26T07:38:39.061Z,99.50
2022-10-26T07:41:07.541Z,99.40
2022-10-26T07:43:37.030Z,99.40
2022-10-26T07:46:05.434Z,99.30
2022-10-26T07:48:33.582Z,99.20
2022-10-26T07:51:03.366Z,99.10
2022-10-26T07:53:31.760Z,99.10
2022-10-26T07:55:59.926Z,99.10
2022-10-26T07:58:28.299Z,99.10
2022-10-26T08:00:58.067Z,98.90
2022-10-26T08:03:26.175Z,98.60
2022-10-26T08:05:56.009Z,98.80
2022-10-26T08:08:24.479Z,98.90
2022-10-26T08:10:52.743Z,98.90
2022-10-26T08:13:20.776Z,98.90
2022-10-26T08:15:48.912Z,98.70
2022-10-26T08:18:18.277Z,98.80
2022-10-26T08:20:46.257Z,98.90
2022-10-26T08:23:14.347Z,98.80
2022-10-26T08:25:42.316Z,98.70
2022-10-26T08:28:10.387Z,98.70
2022-10-26T08:30:38.466Z,98.70
2022-10-26T08:33:08.506Z,98.30
2022-10-26T08:35:37.886Z,98.50
2022-10-26T08:38:05.893Z,98.50
2022-10-26T08:40:35.945Z,98.40
2022-10-26T08:43:11.150Z,98.30
2022-10-26T08:45:45.095Z,98.00
2022-10-26T08:48:17.329Z,98.00
2022-10-26T08:50:52.007Z,98.00
2022-10-26T08:53:24.216Z,98.10
2022-10-26T08:55:59.473Z,97.80
2022-10-26T08:58:31.201Z,98.00
2022-10-26T09:01:00.235Z,97.90
2022-10-26T09:03:28.347Z,97.90
2022-10-26T09:06:14.237Z,97.90
2022-10-26T09:08:54.668Z,98.00
2022-10-26T09:11:38.756Z,97.90
2022-10-26T09:14:16.725Z,97.70
2022-10-26T09:16:56.424Z,97.40
2022-10-26T09:19:44.211Z,97.10
2022-10-26T09:22:22.504Z,97.30
2022-10-26T09:24:55.221Z,97.10
2022-10-26T09:27:28.900Z,97.10
2022-10-26T09:29:58.935Z,97.00
2022-10-26T09:32:32.046Z,96.80
2022-10-26T09:35:04.597Z,96.90
2022-10-26T09:37:38.282Z,96.90
2022-10-26T09:40:12.908Z,96.80
2022-10-26T09:42:44.567Z,96.80
2022-10-26T09:45:19.090Z,96.70
2022-10-26T09:47:52.872Z,96.60
2022-10-26T09:50:26.425Z,96.50
2022-10-26T09:52:55.937Z,96.40
2022-10-26T09:55:23.960Z,96.20
2022-10-26T09:57:54.854Z,96.10
2022-10-26T10:00:25.631Z,96.20
2022-10-26T10:02:55.173Z,96.10
2022-10-26T10:08:23.527Z,96.10
2022-10-26T10:10:57.035Z,95.90
2022-10-26T10:13:27.752Z,96.00
2022-10-26T10:16:03.179Z,96.00
2022-10-26T10:18:33.549Z,96.10
2022-10-26T10:21:01.921Z,96.10
2022-10-26T10:23:36.105Z,96.10
2022-10-26T10:26:10.963Z,96.20
2022-10-26T10:28:40.894Z,96.30
2022-10-26T10:31:22.638Z,96.40
2022-10-26T10:33:50.689Z,96.30
2022-10-26T10:36:21.640Z,96.10
2022-10-26T10:38:52.719Z,96.20
2022-10-26T10:41:26.030Z,95.70
2022-10-26T10:43:57.042Z,95.80
2022-10-26T10:46:27.831Z,95.80
2022-10-26T10:49:04.441Z,95.60
2022-10-26T10:51:40.171Z,95.70
2022-10-26T10:54:23.951Z,95.60
2022-10-26T10:56:54.297Z,95.60
2022-10-26T10:59:48.901Z,95.40
2022-10-26T11:02:54.896Z,95.40
2022-10-26T11:05:48.071Z,95.30
2022-10-26T11:08:22.423Z,95.30
2022-10-26T11:13:56.373Z,95.20
2022-10-26T11:16:32.105Z,95.00
2022-10-26T11:19:04.019Z,95.00
2022-10-26T11:21:36.891Z,94.80
2022-10-26T11:24:17.994Z,94.80
2022-10-26T11:26:55.540Z,94.70
2022-10-26T11:29:32.737Z,94.70
2022-10-26T11:32:09.681Z,94.70
2022-10-26T11:34:45.027Z,94.50
2022-10-26T11:37:18.273Z,94.30
2022-10-26T11:39:47.468Z,94.40
2022-10-26T11:42:26.968Z,94.40
2022-10-26T11:45:00.557Z,94.20
2022-10-26T11:47:36.717Z,94.10
2022-10-26T11:50:14.678Z,94.00
2022-10-26T11:52:50.870Z,93.70
2022-10-26T11:55:20.826Z,93.60
2022-10-26T11:57:51.616Z,93.50
2022-10-26T12:00:21.580Z,93.30
2022-10-26T12:02:53.649Z,93.30
2022-10-26T12:05:24.519Z,93.30
2022-10-26T12:07:56.000Z,93.20
2022-10-26T12:10:28.162Z,93.30
2022-10-26T12:13:04.785Z,93.20
2022-10-26T12:16:01.612Z,93.10
2022-10-26T12:18:54.435Z,93.00
2022-10-26T12:21:25.861Z,92.90
2022-10-26T12:23:59.254Z,92.60
2022-10-26T12:26:41.708Z,92.70
2022-10-26T12:29:36.657Z,92.60
2022-10-26T12:32:06.738Z,92.60
2022-10-26T12:35:03.034Z,92.60
2022-10-26T12:37:36.914Z,92.60
2022-10-26T12:40:43.792Z,92.70
2022-10-26T12:43:40.977Z,92.80
2022-10-26T12:46:45.464Z,92.80
2022-10-26T12:49:58.518Z,92.90
2022-10-26T12:52:53.047Z,92.90
2022-10-26T12:55:48.849Z,92.80
2022-10-26T12:58:39.824Z,92.70
2022-10-26T13:01:43.674Z,92.50
2022-10-26T13:04:48.001Z,92.30
2022-10-26T13:07:24.501Z,92.00
2022-10-26T13:10:02.105Z,91.80
2022-10-26T13:12:39.886Z,91.60
2022-10-26T13:15:21.493Z,91.50
2022-10-26T13:18:11.705Z,91.30
2022-10-26T13:20:55.128Z,91.00
2022-10-26T13:23:28.860Z,90.70
2022-10-26T13:26:08.296Z,90.50
2022-10-26T13:28:55.573Z,90.40
2022-10-26T13:31:55.675Z,90.30
2022-10-26T13:34:26.049Z,90.20
2022-10-26T13:37:05.497Z,90.20
2022-10-26T13:39:38.560Z,89.50
2022-10-26T13:42:08.659Z,89.30
2022-10-26T13:44:43.014Z,88.30
2022-10-26T13:47:13.423Z,87.70
2022-10-26T13:49:44.142Z,86.40
2022-10-26T13:52:18.668Z,85.70
2022-10-26T13:54:49.944Z,84.00
2022-10-26T13:57:22.198Z,84.20
2022-10-26T13:59:51.505Z,82.60
2022-10-26T14:02:23.814Z,82.90
2022-10-26T14:04:54.901Z,82.70
2022-10-26T14:07:29.957Z,82.70
2022-10-26T14:09:59.635Z,82.60
2022-10-26T14:12:29.162Z,82.00
2022-10-26T14:15:03.953Z,82.00
2022-10-26T14:17:32.031Z,82.30
2022-10-26T14:20:00.527Z,82.60
2022-10-26T14:22:31.227Z,82.90
2022-10-26T14:25:00.971Z,83.30
2022-10-26T14:27:33.799Z,83.40
2022-10-26T14:30:21.724Z,83.60
2022-10-26T14:32:51.063Z,84.10
2022-10-26T14:35:21.709Z,84.30
2022-10-26T14:37:55.437Z,84.30
2022-10-26T14:40:26.073Z,84.60
2022-10-26T14:42:56.591Z,85.00
2022-10-26T14:45:47.718Z,85.40
2022-10-26T14:48:24.010Z,86.10
2022-10-26T14:51:09.412Z,86.70
2022-10-26T14:53:41.368Z,87.20
2022-10-26T14:56:22.927Z,87.50
2022-10-26T14:58:51.555Z,87.60
2022-10-26T15:01:32.055Z,87.90
2022-10-26T15:04:06.089Z,88.20
2022-10-26T15:06:41.867Z,88.70
2022-10-26T15:09:44.328Z,89.00
2022-10-26T15:12:32.710Z,89.50
2022-10-26T15:15:11.963Z,90.00
2022-10-26T15:17:42.680Z,90.20
2022-10-26T15:20:18.714Z,90.30
2022-10-26T15:22:52.048Z,90.50
2022-10-26T15:25:23.600Z,90.70
2022-10-26T15:27:52.733Z,90.70
2022-10-26T15:30:25.189Z,90.70
2022-10-26T15:32:53.883Z,90.80
2022-10-26T15:35:31.718Z,90.90
2022-10-26T15:38:01.038Z,90.90
2022-10-26T15:40:32.817Z,91.00
2022-10-26T15:43:02.347Z,90.80
2022-10-26T15:45:34.916Z,91.00
2022-10-26T15:48:19.365Z,90.90
2022-10-26T15:50:47.375Z,91.00
2022-10-26T15:53:19.689Z,91.20
2022-10-26T15:55:50.737Z,91.40
2022-10-26T15:58:18.797Z,91.60
2022-10-26T16:00:47.168Z,91.70
2022-10-26T16:03:18.800Z,91.80
2022-10-26T16:05:47.049Z,92.00
2022-10-26T16:08:18.399Z,92.20
2022-10-26T16:10:48.691Z,92.30
2022-10-26T16:13:16.805Z,92.50
2022-10-26T16:15:45.364Z,92.60
2022-10-26T16:18:13.868Z,92.70
2022-10-26T16:20:42.739Z,92.80
2022-10-26T16:23:10.891Z,93.00
2022-10-26T16:25:43.456Z,92.90
2022-10-26T16:28:15.494Z,93.00
2022-10-26T16:30:43.944Z,93.10
2022-10-26T16:33:12.015Z,93.10
2022-10-26T16:35:40.121Z,93.20
2022-10-26T16:38:08.205Z,93.30
2022-10-26T16:40:36.263Z,93.50
2022-10-26T16:43:04.286Z,93.50
2022-10-26T16:45:33.653Z,93.70
2022-10-26T16:48:05.735Z,93.80
2022-10-26T16:50:36.307Z,93.90
2022-10-26T16:53:05.052Z,93.90
2022-10-26T16:55:33.766Z,94.00
2022-10-26T16:58:01.914Z,94.20
2022-10-26T17:00:30.661Z,94.30
2022-10-26T17:03:02.173Z,94.40
2022-10-26T17:05:30.530Z,94.40
2022-10-26T17:07:58.615Z,94.40
2022-10-26T17:10:28.228Z,94.50
2022-10-26T17:12:57.306Z,94.90
2022-10-26T17:15:28.961Z,94.90
2022-10-26T17:17:57.362Z,95.00
2022-10-26T17:20:26.754Z,95.10
2022-10-26T17:22:57.454Z,95.30
2022-10-26T17:25:25.561Z,95.60
2022-10-26T17:27:53.600Z,95.80
2022-10-26T17:30:21.711Z,96.00
2022-10-26T17:32:50.003Z,96.20
2022-10-26T17:35:19.047Z,96.20
2022-10-26T17:37:48.716Z,96.30
2022-10-26T17:40:17.134Z,96.20
2022-10-26T17:42:45.400Z,96.40
2022-10-26T17:45:13.384Z,96.50
2022-10-26T17:47:41.535Z,96.50
2022-10-26T17:50:10.613Z,96.50
2022-10-26T17:52:38.761Z,96.50
2022-10-26T17:55:08.742Z,96.50
2022-10-26T17:57:36.866Z,96.40
2022-10-26T18:00:06.311Z,96.40
2022-10-26T18:02:40.938Z,96.50
2022-10-26T18:05:09.974Z,96.50
2022-10-26T18:07:37.969Z,96.50
2022-10-26T18:10:26.158Z,96.50
2022-10-26T18:12:56.144Z,96.50
2022-10-26T18:15:24.948Z,96.60
2022-10-26T18:17:56.874Z,96.80
2022-10-26T18:20:26.664Z,96.50
2022-10-26T18:22:54.688Z,97.00
2022-10-26T18:25:24.968Z,97.20
2022-10-26T18:27:53.082Z,97.60
2022-10-26T18:30:21.155Z,97.70
2022-10-26T18:32:50.242Z,98.00
2022-10-26T18:35:18.707Z,97.40
2022-10-26T18:37:46.917Z,98.00
2022-10-26T18:40:15.448Z,98.20
2022-10-26T18:42:45.215Z,98.30
2022-10-26T18:45:13.253Z,98.30
2022-10-26T18:47:41.337Z,97.90
2022-10-26T18:50:10.060Z,98.20
2022-10-26T18:52:38.295Z,98.30
2022-10-26T18:55:07.276Z,98.40
2022-10-26T18:57:35.466Z,98.50
2022-10-26T19:00:05.443Z,98.50
2022-10-26T19:02:33.481Z,98.50
2022-10-26T19:05:01.566Z,98.50
2022-10-26T19:07:29.531Z,98.50
2022-10-26T19:09:57.626Z,98.60
2022-10-26T19:12:25.680Z,98.70
2022-10-26T19:14:53.855Z,98.70
2022-10-26T19:17:23.218Z,98.60
2022-10-26T19:19:51.212Z,98.60
2022-10-26T19:22:19.272Z,98.70
2022-10-26T19:24:48.247Z,98.80
2022-10-26T19:29:49.301Z,98.80
2022-10-26T19:32:17.317Z,98.80
2022-10-26T19:34:46.741Z,98.80
2022-10-26T19:37:14.778Z,98.90
2022-10-26T19:39:43.380Z,98.90
2022-10-26T19:42:11.443Z,98.90
2022-10-26T19:44:39.560Z,98.90
2022-10-26T19:47:07.873Z,98.90
2022-10-26T19:49:36.027Z,98.90
2022-10-26T19:52:05.891Z,98.90
2022-10-26T19:54:34.133Z,98.90
2022-10-26T19:57:05.310Z,99.00
2022-10-26T19:59:33.372Z,99.00
2022-10-26T20:02:01.394Z,99.00
2022-10-26T20:04:29.477Z,99.00
2022-10-26T20:06:57.719Z,99.00
2022-10-26T20:09:27.590Z,98.90
2022-10-26T20:11:55.649Z,98.90
2022-10-26T20:14:23.695Z,98.80
2022-10-26T20:16:51.738Z,98.80
2022-10-26T20:19:19.773Z,98.90
2022-10-26T20:21:47.967Z,98.90
2022-10-26T20:24:15.988Z,98.90
2022-10-26T20:26:45.453Z,99.00
2022-10-26T20:29:13.468Z,99.10
2022-10-26T20:31:41.507Z,98.60
2022-10-26T20:34:09.583Z,99.00
2022-10-26T20:36:37.646Z,99.20
2022-10-26T20:39:06.565Z,99.30
2022-10-26T20:41:35.192Z,99.40
2022-10-26T20:44:05.441Z,99.50
2022-10-26T20:46:34.038Z,99.40
2022-10-26T20:49:02.856Z,99.10
2022-10-26T20:51:47.587Z,99.30
2022-10-26T20:54:30.268Z,99.40
2022-10-26T20:57:02.007Z,99.50
2022-10-26T20:59:37.080Z,99.50
2022-10-26T21:02:05.349Z,99.50
2022-10-26T21:04:33.471Z,99.40
2022-10-26T21:07:01.515Z,99.40
2022-10-26T21:09:31.688Z,99.40
2022-10-26T21:12:05.196Z,99.40
2022-10-26T21:14:40.603Z,99.40
2022-10-26T21:17:09.222Z,99.40
2022-10-26T21:19:37.420Z,99.30
2022-10-26T21:22:05.466Z,99.30
2022-10-26T21:24:33.694Z,99.30
2022-10-26T21:27:02.199Z,99.20
2022-10-26T21:29:30.185Z,99.30
2022-10-26T21:31:59.869Z,99.20
2022-10-26T21:34:28.103Z,99.30
2022-10-26T21:36:56.160Z,99.20
2022-10-26T21:39:24.550Z,99.20
2022-10-26T21:41:52.534Z,99.30
2022-10-26T21:44:39.976Z,99.30
2022-10-26T21:47:10.709Z,99.30
2022-10-26T21:49:39.228Z,99.50
2022-10-26T21:52:08.380Z,99.60
2022-10-26T21:54:36.564Z,99.50
2022-10-26T21:57:04.619Z,99.10
2022-10-26T21:59:32.686Z,99.10
2022-10-26T22:02:00.894Z,99.20
2022-10-26T22:04:33.405Z,99.20
2022-10-26T22:07:02.191Z,99.30
2022-10-26T22:09:30.214Z,99.30
2022-10-26T22:11:58.367Z,99.40
2022-10-26T22:14:26.539Z,99.40
2022-10-26T22:16:54.614Z,99.40
2022-10-26T22:19:22.622Z,99.40
2022-10-26T22:21:52.162Z,99.30
2022-10-26T22:24:20.244Z,99.30
2022-10-26T22:26:48.477Z,99.30
2022-10-26T22:29:16.714Z,99.30
2022-10-26T22:31:44.953Z,99.40
2022-10-26T22:34:16.751Z,99.50
2022-10-26T22:36:45.415Z,99.40
2022-10-26T22:39:14.822Z,99.50
2022-10-26T22:41:42.836Z,99.50
2022-10-26T22:44:10.973Z,99.60
2022-10-26T22:46:39.274Z,99.70
2022-10-26T22:49:07.294Z,99.70
2022-10-26T22:51:35.852Z,99.70
2022-10-26T22:54:05.714Z,99.80
2022-10-26T22:56:37.132Z,99.80
2022-10-26T22:59:05.501Z,99.80
2022-10-26T23:01:37.670Z,99.80
2022-10-26T23:04:06.214Z,99.90
2022-10-26T23:06:34.790Z,99.80
2022-10-26T23:09:03.196Z,99.90
2022-10-26T23:11:31.454Z,99.90
2022-10-26T23:14:02.637Z,99.90
2022-10-26T23:16:31.534Z,99.90
2022-10-26T23:19:00.225Z,99.90
2022-10-26T23:21:29.102Z,99.90
2022-10-26T23:23:57.488Z,99.90
2022-10-26T23:26:25.601Z,99.90
2022-10-26T23:28:53.594Z,99.90
2022-10-26T23:31:25.714Z,99.90
2022-10-26T23:33:55.099Z,99.90
2022-10-26T23:36:23.409Z,99.90
2022-10-26T23:38:51.780Z,99.90
2022-10-26T23:41:19.868Z,99.90
2022-10-26T23:43:47.853Z,99.90
2022-10-26T23:46:16.099Z,99.90
2022-10-26T23:48:45.531Z,99.90
2022-10-26T23:51:13.571Z,99.90
2022-10-26T23:53:41.666Z,99.90
2022-10-26T23:56:09.737Z,99.90
2022-10-26T23:58:37.790Z,99.90
